»·PEaware :: SWA1514 KSNA-KLAS

SWA1514 :: KSNA-KLAS

FLIGHT INFORMATION

Flight Status: Arrived
Operator:
Southwest Airlines
More flights by this operator :: More flights under this callsign
Pilot: Cody B. (17747)
Aircraft: BOEING 737-800
(B738)
More flights by this aircraft type
Origin: KSNA John Wayne-Orange Co
United States
Destination: KLAS McCarran Intl
United States
More flights between these airports :: More routes between these airports
Route: +FINZZ2 MISEN KEPEC6
File this flight plan on PilotEdge
Remarks:
Altitude:
(Current/Filed)
29,000ft
Speed:
(Current/Filed)
426kts
Departed: 16-May-18 10:18 AM
Arrived: 16-May-18 11:02 AM
Distance/Time
Traveled:
197nm/0:44
Distance/Time
To Go:
Arrived

Flight Plot

Page will automatically refresh every two minutes.

Flight plan parsing failed; only flown route is shown


Map Options




Map Legend


Flown Route
Filed Route
Departure Airport
Arrival Airport
Navaid (VOR, NDB)
Fix

Horizontal Profiles

Position Reports

Time Latitude Longitude Heading Altitude Ground
Speed
16-May-18 09:43 33.675375 -117.864898 117 64ft 0kts
16-May-18 09:44 33.675375 -117.864898 117 64ft 0kts
16-May-18 09:45 33.675375 -117.864898 117 64ft 0kts
16-May-18 09:46 33.675375 -117.864898 117 64ft 0kts
16-May-18 09:47 33.675375 -117.864898 117 64ft 0kts
16-May-18 09:48 33.675375 -117.864898 117 64ft 0kts
16-May-18 09:49 33.675375 -117.864898 117 64ft 0kts
16-May-18 09:50 33.675375 -117.864898 117 64ft 0kts
16-May-18 09:51 33.675375 -117.864898 117 64ft 0kts
16-May-18 09:52 33.675375 -117.864898 117 64ft 0kts
16-May-18 09:53 33.675375 -117.864898 117 64ft 0kts
16-May-18 09:54 33.675375 -117.864898 117 64ft 0kts
16-May-18 09:55 33.675375 -117.864898 117 64ft 0kts
16-May-18 09:56 33.675375 -117.864898 117 64ft 0kts
16-May-18 09:57 33.675375 -117.864898 117 64ft 0kts
16-May-18 09:58 33.675375 -117.864898 117 64ft 0kts
16-May-18 09:59 33.675375 -117.864898 117 64ft 0kts
16-May-18 10:00 33.675375 -117.864898 117 64ft 0kts
16-May-18 10:01 33.675375 -117.864898 117 64ft 0kts
16-May-18 10:02 33.675375 -117.864898 117 64ft 0kts
16-May-18 10:03 33.675375 -117.864898 117 64ft 0kts
16-May-18 10:04 33.675375 -117.864898 117 64ft 0kts
16-May-18 10:05 33.675375 -117.864898 117 64ft 0kts
16-May-18 10:06 33.675375 -117.864898 117 64ft 0kts
16-May-18 10:07 33.675375 -117.864898 117 64ft 0kts
16-May-18 10:08 33.675560 -117.865298 119 64ft 1kts
16-May-18 10:09 33.675448 -117.865646 27 64ft 0kts
16-May-18 10:10 33.675448 -117.865646 27 64ft 0kts
16-May-18 10:11 33.675538 -117.865591 27 64ft 2kts
16-May-18 10:12 33.676256 -117.865127 27 64ft 7kts
16-May-18 10:13 33.679675 -117.862959 28 64ft 9kts
16-May-18 10:14 33.681193 -117.864309 297 64ft 0kts
16-May-18 10:15 33.681193 -117.864309 297 64ft 0kts
16-May-18 10:16 33.681492 -117.864986 285 64ft 0kts
16-May-18 10:17 33.681301 -117.865256 211 64ft 4kts
16-May-18 10:18 33.654374 -117.882764 206 1892ft 154kts
16-May-18 10:19 33.607939 -117.903003 179 4247ft 207kts
16-May-18 10:20 33.546864 -117.920980 228 6309ft 261kts
16-May-18 10:21 33.496651 -117.983696 244 7983ft 263kts
16-May-18 10:22 33.526487 -118.060572 309 9619ft 285kts
16-May-18 10:23 33.592472 -118.120410 351 12269ft 337kts
16-May-18 10:24 33.683297 -118.078447 24 15480ft 372kts
16-May-18 10:25 33.779125 -118.021132 22 18179ft 398kts
16-May-18 10:26 33.879881 -117.961518 22 21003ft 414kts
16-May-18 10:27 33.977425 -117.883823 35 23357ft 436kts
16-May-18 10:28 34.074570 -117.793007 34 25514ft 451kts
16-May-18 10:29 34.158464 -117.680881 51 27385ft 469kts
16-May-18 10:30 34.226596 -117.576803 49 28830ft 481kts
16-May-18 10:31 34.312498 -117.447665 49 29112ft 510kts
16-May-18 10:32 34.403014 -117.311652 50 29086ft 529kts
16-May-18 10:33 34.495111 -117.173054 50 29089ft 529kts
16-May-18 10:34 34.587933 -117.035004 49 29089ft 528kts
16-May-18 10:35 34.681586 -116.898202 49 29039ft 528kts
16-May-18 10:36 34.775276 -116.760898 49 29043ft 530kts
16-May-18 10:37 34.870502 -116.625170 39 29031ft 527kts
16-May-18 10:38 34.980952 -116.519072 35 28258ft 485kts
16-May-18 10:39 35.084124 -116.419599 35 25328ft 465kts
16-May-18 10:40 35.174250 -116.313057 45 24045ft 456kts
16-May-18 10:41 35.262636 -116.202196 45 24055ft 453kts
16-May-18 10:42 35.349705 -116.092819 45 21945ft 438kts
16-May-18 10:43 35.433241 -115.986866 47 18950ft 431kts
16-May-18 10:44 35.513115 -115.883893 47 16250ft 416kts
16-May-18 10:45 35.589606 -115.787104 45 14646ft 375kts
16-May-18 10:46 35.658058 -115.700557 45 13340ft 337kts
16-May-18 10:47 35.721985 -115.619124 45 13030ft 333kts
16-May-18 10:48 35.800088 -115.570291 359 13038ft 323kts
16-May-18 10:49 35.889920 -115.566131 358 13030ft 323kts
16-May-18 10:50 35.974549 -115.539291 49 12793ft 333kts
16-May-18 10:51 36.011010 -115.439869 70 11672ft 316kts
16-May-18 10:52 36.031120 -115.343229 98 10622ft 286kts
16-May-18 10:53 36.023508 -115.247520 99 9505ft 275kts
16-May-18 10:54 36.016500 -115.156088 97 8478ft 260kts
16-May-18 10:55 36.012125 -115.072341 95 7174ft 245kts
16-May-18 10:56 36.008601 -114.987791 95 5874ft 241kts
16-May-18 10:57 36.020705 -114.909962 24 5000ft 241kts
16-May-18 10:58 36.070917 -114.940045 298 4981ft 194kts
16-May-18 10:59 36.073461 -114.999556 263 4128ft 161kts
16-May-18 11:00 36.073294 -115.051175 269 3228ft 144kts
16-May-18 11:01 36.073619 -115.102524 262 2440ft 148kts
16-May-18 11:02 36.073636 -115.142448 272 2093ft 33kts
16-May-18 11:03 36.074582 -115.145698 295 2102ft 0kts
16-May-18 11:04 36.076215 -115.146573 359 2104ft 11kts
16-May-18 11:05 36.077587 -115.146581 346 2102ft 1kts
16-May-18 11:06 36.077978 -115.148083 322 2104ft 2kts
16-May-18 11:07 36.078866 -115.147378 356 2101ft 5kts
16-May-18 11:08 36.079855 -115.147245 56 2097ft 4kts
16-May-18 11:09 36.079921 -115.147119 57 2096ft 0kts
16-May-18 11:10 36.079921 -115.147119 57 2096ft 0kts

Navigation Log

Ident Type
Flight plan parsing failed, navigation log unavailable